Aviation Digital Data Service (ADDS)

Output produced by METARs form (1705 UTC 20 January 2019)
found at http://www.aviationweather.gov/metar/data/
 
EHKD 201655Z AUTO 10004KT 9999 OVC130 01/M03 Q1020 BLU
TAF EHKD 201336Z 2014/2102 05005KT CAVOK 
     BECMG 2018/2021 VRB01KT 
     BECMG 2023/2101 19005KT
       
EHDL 201655Z AUTO VRB02KT 9999 OVC130 M03/M05 Q1019 BLU
EHGG 201655Z AUTO 09003KT 8000 NCD M02/M03 Q1020 NOSIG
TAF EHGG 201112Z 2012/2118 09005KT CAVOK 
     BECMG 2020/2023 4000 BR 
     PROB40 
     TEMPO 2023/2108 1200 BCFG 
     PROB30 
     TEMPO 2100/2107 0400 FZFG 
     BECMG 2108/2111 9999 NSW BKN020 
     PROB30 
     TEMPO 2110/2113 7000 -FZRA BKN012
       
EHEH 201655Z AUTO 06003KT 010V100 9999 NCD M01/M06 Q1019 BLU 06005KT CAVOK
TAF EHEH 201145Z 2012/2118 07005KT CAVOK 
     BECMG 2100/2103 VRB02KT 
     PROB30 
     TEMPO 2101/2107 3000 BR MIFG 
     BECMG 2106/2109 23005KT
       
EHGR 201655Z AUTO 05004KT 040V100 9999 NCD M03/M06 Q1019 BLU
EHLW 201655Z AUTO 05003KT 010V100 9999 OVC130 M02/M03 Q1020 BLU
TAF EHLW 201337Z 2014/2102 VRB02KT CAVOK 
     PROB40 
     TEMPO 2022/2101 3000 BR MIFG 
     BECMG 2100/2102 20005KT
       
EHBK 201655Z AUTO 06006KT 9999 NCD M02/M06 Q1018 NOSIG
TAF EHBK 201112Z 2012/2118 08007KT CAVOK 
     PROB30 2102/2108 3000 BR MIFG
       
EHRD 201655Z AUTO 05002KT 9999 NCD M01/M06 Q1019 NOSIG
TAF EHRD 201119Z 2012/2118 08005KT CAVOK 
     BECMG 2100/2103 22003KT 6000 MIFG 
     PROB40 
     TEMPO 2104/2108 1200 BCFG 
     BECMG 2108/2111 CAVOK 
     BECMG 2112/2115 20008KT BKN025
       
EHAM 201655Z VRB02KT CAVOK M01/M04 Q1020 NOSIG
TAF EHAM 201119Z 2012/2118 08005KT CAVOK 
     BECMG 2100/2103 22003KT 7000 MIFG 
     PROB30 
     TEMPO 2104/2108 1200 BCFG 
     BECMG 2108/2111 CAVOK 
     BECMG 2112/2115 20008KT BKN025
       
EHVK 201655Z AUTO VRB02KT 9999 NCD M02/M05 Q1019 BLU
TAF EHVK 201337Z 2014/2102 07005KT CAVOK 
     BECMG 2100/2102 VRB01KT
       
EHWO 201655Z AUTO 05004KT 9999 NCD M03/M05 Q1019 BLU